ENMS  Mosjøen , Kjærstad  Airport

Norway

Add Bookmark
ICAO ENMS
IATA MJF
Type Airport
Status Operational
Latitude
65° 47' 2" N
65.783997
Longitude
13° 12' 53" E
13.214900
Local (GMT +2 ) UTC
May 3, 2016 01:17 am May 2, 2016 23:17
Sunrise-Sunset Local UTC
Begin Civil Twilight 02:39 am 00:39
Sunrise 04:10 am 02:10
Sunset 09:57 pm 19:57
End Civil Twilight 11:28 pm 21:28
VFR
VFR
MVFR
MVFR
IFR
IFR
LIFR
LIFR
Unknown
Unavailable

Current Weather

METAR Observed VFR
ENMS 022050Z VRB02KT CAVOK 08/01 Q1011 Mon, May 2, 2016 @ 20:50 UTC
(2 Hours, 27 Minutes ago)
Visual Flight Rules
Wind Visibility Conditions
Varies at 2 knots (4 kph) 10 km or more
  • No significant weather
Temperatures Readings Precipitation
Current Temp
8°C
46°F
Low Temp
-0°C
32°F
Dewpoint
1°C
34°F
Humidity 62%
Altimeter 29.85" Hg
Sea Level Pressure 1,011 mb
Field Elevation
70 m
230 ft
None Recorded

Additional weather within a 92.6km radius of ENMS

Map ICAO Location
ENST 38.9km W/NW (300°)
ENBN 58.2km SW (232°)
ENRA 80.9km NE (037°)
VFR
VFR
MVFR
MVFR
IFR
IFR
LIFR
LIFR
Unknown
Unavailable
-
-

CheckWX.com is intended as a tool to help pilots better visualize weather data. It is not intended as a substitute for an official weather briefing obtained from a Flight Service Station. CheckWX.com does not meet the FAA requirements for an official pre-flight weather briefing. Therefore, it's important that pilots still call and obtain an official FSS pre-flight weather briefing.

© 2007-2016 CheckWX.com
23:17:16 UTC